createdAt,value
2022-07-25T00:00:25.471Z,63.40
2022-07-25T00:02:52.426Z,63.70
2022-07-25T00:05:19.565Z,63.60
2022-07-25T00:07:46.851Z,64.10
2022-07-25T00:10:13.985Z,63.70
2022-07-25T00:12:42.260Z,63.50
2022-07-25T00:15:09.986Z,63.80
2022-07-25T00:17:38.059Z,62.50
2022-07-25T00:20:05.936Z,63.40
2022-07-25T00:22:32.977Z,63.10
2022-07-25T00:24:59.935Z,63.40
2022-07-25T00:27:27.314Z,62.70
2022-07-25T00:29:54.915Z,63.50
2022-07-25T00:32:21.877Z,63.30
2022-07-25T00:34:48.962Z,63.50
2022-07-25T00:37:15.954Z,63.90
2022-07-25T00:39:43.018Z,64.30
2022-07-25T00:42:10.075Z,65.10
2022-07-25T00:44:37.173Z,65.80
2022-07-25T00:47:04.162Z,66.90
2022-07-25T00:49:31.224Z,67.90
2022-07-25T00:51:58.853Z,68.40
2022-07-25T00:54:26.050Z,68.80
2022-07-25T00:59:20.858Z,70.00
2022-07-25T01:01:48.569Z,70.20
2022-07-25T01:04:17.043Z,70.60
2022-07-25T01:06:44.609Z,70.40
2022-07-25T01:09:11.956Z,70.50
2022-07-25T01:11:39.290Z,71.00
2022-07-25T01:14:06.862Z,70.90
2022-07-25T01:16:34.957Z,71.20
2022-07-25T01:19:01.983Z,71.00
2022-07-25T01:21:29.348Z,72.00
2022-07-25T01:23:56.486Z,72.70
2022-07-25T01:26:23.869Z,72.30
2022-07-25T01:28:50.821Z,73.80
2022-07-25T01:31:17.985Z,72.80
2022-07-25T01:33:45.180Z,73.80
2022-07-25T01:36:12.279Z,73.50
2022-07-25T01:38:39.605Z,74.20
2022-07-25T01:41:06.956Z,74.50
2022-07-25T01:43:34.078Z,74.30
2022-07-25T01:46:01.264Z,74.10
2022-07-25T01:48:28.425Z,74.60
2022-07-25T01:50:55.389Z,75.30
2022-07-25T01:53:22.715Z,75.60
2022-07-25T01:55:51.085Z,75.70
2022-07-25T01:58:19.291Z,75.60
2022-07-25T02:00:47.309Z,74.90
2022-07-25T02:03:14.333Z,75.30
2022-07-25T02:05:41.547Z,75.00
2022-07-25T02:08:08.627Z,75.00
2022-07-25T02:10:38.394Z,75.10
2022-07-25T02:13:05.708Z,74.70
2022-07-25T02:15:32.642Z,74.20
2022-07-25T02:17:59.558Z,75.60
2022-07-25T02:20:26.720Z,75.60
2022-07-25T02:22:53.653Z,75.40
2022-07-25T02:25:20.751Z,75.80
2022-07-25T02:27:47.760Z,75.60
2022-07-25T02:30:14.927Z,76.20
2022-07-25T02:32:41.860Z,75.60
2022-07-25T02:35:09.929Z,75.70
2022-07-25T02:37:40.913Z,76.00
2022-07-25T02:40:08.751Z,76.20
2022-07-25T02:42:35.706Z,74.80
2022-07-25T02:45:02.735Z,75.20
2022-07-25T02:47:29.675Z,75.60
2022-07-25T02:49:56.785Z,76.10
2022-07-25T02:52:23.679Z,77.30
2022-07-25T02:54:50.607Z,77.30
2022-07-25T02:57:17.767Z,78.40
2022-07-25T02:59:45.108Z,76.90
2022-07-25T03:02:12.088Z,77.70
2022-07-25T03:04:39.206Z,77.60
2022-07-25T03:07:06.183Z,79.10
2022-07-25T03:09:33.321Z,78.70
2022-07-25T03:12:00.322Z,78.70
2022-07-25T03:14:27.418Z,78.60
2022-07-25T03:16:54.622Z,78.10
2022-07-25T03:19:21.761Z,78.70
2022-07-25T03:21:48.693Z,79.00
2022-07-25T03:24:15.735Z,78.70
2022-07-25T03:26:42.742Z,78.60
2022-07-25T03:29:09.665Z,78.50
2022-07-25T03:31:36.655Z,78.30
2022-07-25T03:34:03.968Z,78.70
2022-07-25T03:36:31.009Z,77.70
2022-07-25T03:38:57.920Z,79.00
2022-07-25T03:41:24.929Z,79.80
2022-07-25T03:43:54.171Z,79.60
2022-07-25T03:46:21.170Z,79.30
2022-07-25T03:48:48.212Z,77.90
2022-07-25T03:51:15.204Z,76.50
2022-07-25T03:53:42.154Z,76.60
2022-07-25T03:56:09.261Z,76.00
2022-07-25T03:58:36.584Z,75.70
2022-07-25T04:01:03.741Z,75.00
2022-07-25T04:03:31.370Z,74.30
2022-07-25T04:05:58.227Z,75.00
2022-07-25T04:08:25.162Z,75.60
2022-07-25T04:10:52.124Z,75.10
2022-07-25T04:13:19.041Z,76.30
2022-07-25T04:15:46.138Z,74.80
2022-07-25T04:18:13.189Z,74.80
2022-07-25T04:20:45.515Z,75.40
2022-07-25T04:23:12.498Z,76.70
2022-07-25T04:25:39.755Z,76.00
2022-07-25T04:28:07.171Z,77.00
2022-07-25T04:30:34.218Z,76.70
2022-07-25T04:33:01.209Z,75.80
2022-07-25T04:35:28.370Z,75.50
2022-07-25T04:37:55.359Z,75.30
2022-07-25T04:40:22.453Z,75.80
2022-07-25T04:42:49.418Z,73.40
2022-07-25T04:45:17.902Z,74.30
2022-07-25T04:50:12.575Z,72.70
2022-07-25T04:52:39.755Z,73.90
2022-07-25T04:55:07.119Z,73.20
2022-07-25T04:57:34.259Z,73.10
2022-07-25T05:00:01.254Z,72.40
2022-07-25T05:02:28.383Z,71.90
2022-07-25T05:04:55.567Z,70.80
2022-07-25T05:07:22.712Z,71.30
2022-07-25T05:09:49.750Z,71.20
2022-07-25T05:12:16.715Z,69.90
2022-07-25T05:14:43.962Z,70.20
2022-07-25T05:17:11.167Z,69.70
2022-07-25T05:19:38.400Z,69.10
2022-07-25T05:22:05.509Z,68.60
2022-07-25T05:24:36.629Z,68.20
2022-07-25T05:27:05.314Z,68.20
2022-07-25T05:29:32.661Z,67.30
2022-07-25T05:31:59.726Z,66.20
2022-07-25T05:34:26.921Z,65.60
2022-07-25T05:36:53.808Z,63.60
2022-07-25T05:39:20.845Z,63.50
2022-07-25T05:41:47.907Z,62.80
2022-07-25T05:44:14.989Z,63.70
2022-07-25T05:46:42.370Z,61.90
2022-07-25T05:49:09.673Z,61.90
2022-07-25T05:51:36.622Z,61.40
2022-07-25T05:54:04.197Z,60.70
2022-07-25T05:56:31.403Z,61.50
2022-07-25T05:58:58.329Z,60.20
2022-07-25T06:01:25.476Z,60.80
2022-07-25T06:03:52.522Z,59.90
2022-07-25T06:06:19.551Z,60.60
2022-07-25T06:08:46.587Z,59.70
2022-07-25T06:11:14.755Z,58.80
2022-07-25T06:13:41.707Z,58.40
2022-07-25T06:16:08.840Z,58.30
2022-07-25T06:18:35.848Z,57.90
2022-07-25T06:21:02.953Z,56.10
2022-07-25T06:23:31.702Z,55.90
2022-07-25T06:25:58.735Z,54.20
2022-07-25T06:28:25.689Z,55.10
2022-07-25T06:30:52.782Z,60.50
2022-07-25T06:33:19.723Z,60.20
2022-07-25T06:35:46.846Z,53.80
2022-07-25T06:38:13.831Z,52.30
2022-07-25T06:40:40.797Z,52.90
2022-07-25T06:43:07.768Z,53.20
2022-07-25T06:45:34.786Z,52.60
2022-07-25T06:48:01.799Z,52.20
2022-07-25T06:50:28.972Z,52.40
2022-07-25T06:52:56.162Z,51.70
2022-07-25T06:55:23.242Z,53.30
2022-07-25T06:57:50.559Z,52.10
2022-07-25T07:00:18.025Z,52.30
2022-07-25T07:03:03.363Z,53.20
2022-07-25T07:05:32.461Z,53.30
2022-07-25T07:08:00.255Z,52.10
2022-07-25T07:10:27.673Z,53.30
2022-07-25T07:13:07.690Z,51.40
2022-07-25T07:15:35.672Z,51.60
2022-07-25T07:18:02.747Z,51.60
2022-07-25T07:20:29.688Z,52.20
2022-07-25T07:22:57.104Z,52.00
2022-07-25T07:25:24.815Z,52.30
2022-07-25T07:27:55.575Z,51.30
2022-07-25T07:30:25.948Z,52.10
2022-07-25T07:33:00.670Z,51.60
2022-07-25T07:35:27.762Z,51.80
2022-07-25T07:37:54.954Z,51.90
2022-07-25T07:40:22.537Z,51.40
2022-07-25T07:42:50.868Z,51.20
2022-07-25T07:45:20.387Z,51.50
2022-07-25T07:47:48.924Z,51.10
2022-07-25T07:50:18.400Z,52.90
2022-07-25T07:52:46.337Z,50.60
2022-07-25T07:55:14.165Z,50.60
2022-07-25T07:57:41.168Z,50.70
2022-07-25T08:00:09.865Z,50.00
2022-07-25T08:03:06.065Z,50.90
2022-07-25T08:05:35.046Z,50.10
2022-07-25T08:08:02.525Z,51.30
2022-07-25T08:10:32.360Z,51.10
2022-07-25T08:13:00.200Z,50.10
2022-07-25T08:15:27.546Z,49.90
2022-07-25T08:17:54.586Z,50.20
2022-07-25T08:20:37.495Z,50.40
2022-07-25T08:23:06.401Z,49.30
2022-07-25T08:25:33.446Z,50.00
2022-07-25T08:30:28.019Z,49.00
2022-07-25T08:32:57.489Z,47.90
2022-07-25T08:35:26.239Z,48.30
2022-07-25T08:37:54.231Z,48.30
2022-07-25T08:40:23.404Z,48.70
2022-07-25T08:42:51.321Z,48.00
2022-07-25T08:45:19.581Z,47.90
2022-07-25T08:47:51.475Z,48.20
2022-07-25T08:50:25.501Z,47.70
2022-07-25T08:53:09.943Z,47.40
2022-07-25T08:55:39.957Z,46.80
2022-07-25T08:58:06.969Z,48.60
2022-07-25T09:00:33.874Z,48.20
2022-07-25T09:03:04.182Z,46.20
2022-07-25T09:05:33.295Z,47.50
2022-07-25T09:08:22.058Z,47.20
2022-07-25T09:10:53.497Z,48.30
2022-07-25T09:13:22.753Z,47.80
2022-07-25T09:15:56.142Z,47.10
2022-07-25T09:18:24.904Z,47.20
2022-07-25T09:20:54.718Z,48.20
2022-07-25T09:23:36.797Z,47.30
2022-07-25T09:26:06.890Z,48.00
2022-07-25T09:28:50.682Z,46.00
2022-07-25T09:31:18.255Z,46.40
2022-07-25T09:33:47.242Z,47.60
2022-07-25T09:36:14.421Z,47.30
2022-07-25T09:38:51.076Z,46.80
2022-07-25T09:41:18.205Z,45.20
2022-07-25T09:43:45.206Z,45.70
2022-07-25T09:46:13.072Z,45.70
2022-07-25T09:48:44.140Z,45.90
2022-07-25T09:51:11.161Z,46.30
2022-07-25T09:53:38.563Z,45.90
2022-07-25T09:56:07.827Z,45.50
2022-07-25T09:58:34.831Z,45.20
2022-07-25T10:01:05.827Z,45.30
2022-07-25T10:03:47.889Z,45.10
2022-07-25T10:06:36.437Z,46.30
2022-07-25T10:09:03.919Z,45.00
2022-07-25T10:11:31.255Z,44.50
2022-07-25T10:14:09.686Z,44.60
2022-07-25T10:16:47.011Z,44.80
2022-07-25T10:19:14.144Z,42.60
2022-07-25T10:21:41.073Z,43.90
2022-07-25T10:24:10.103Z,43.60
2022-07-25T10:26:39.952Z,43.90
2022-07-25T10:41:07.927Z,43.80
2022-07-25T10:43:39.390Z,42.40
2022-07-25T10:46:20.716Z,42.80
2022-07-25T10:48:58.917Z,42.10
2022-07-25T10:51:31.942Z,41.30
2022-07-25T10:53:59.023Z,41.50
2022-07-25T10:56:28.722Z,42.30
2022-07-25T10:59:01.024Z,41.80
2022-07-25T11:01:33.406Z,42.40
2022-07-25T11:04:05.966Z,41.30
2022-07-25T11:06:41.910Z,40.10
2022-07-25T11:09:21.638Z,40.90
2022-07-25T11:11:59.253Z,40.00
2022-07-25T11:14:35.153Z,40.70
2022-07-25T11:17:16.923Z,40.00
2022-07-25T11:19:52.736Z,40.90
2022-07-25T11:22:19.678Z,40.20
2022-07-25T11:24:47.911Z,41.60
2022-07-25T11:27:29.565Z,40.30
2022-07-25T11:30:09.483Z,39.30
2022-07-25T11:32:48.650Z,40.30
2022-07-25T11:35:16.579Z,40.80
2022-07-25T11:37:46.206Z,40.60
2022-07-25T11:40:13.515Z,39.60
2022-07-25T11:42:50.190Z,40.00
2022-07-25T11:45:28.606Z,39.80
2022-07-25T11:48:13.471Z,40.30
2022-07-25T11:50:45.197Z,39.50
2022-07-25T11:53:14.828Z,41.00
2022-07-25T11:55:42.763Z,40.80
2022-07-25T11:58:11.345Z,41.10
2022-07-25T12:00:56.614Z,40.20
2022-07-25T12:03:23.619Z,40.60
2022-07-25T12:05:50.781Z,41.00
2022-07-25T12:08:22.040Z,40.80
2022-07-25T12:10:49.907Z,40.10
2022-07-25T12:13:28.627Z,40.30
2022-07-25T12:16:00.061Z,40.00
2022-07-25T12:18:27.803Z,40.60
2022-07-25T12:20:54.918Z,40.50
2022-07-25T12:23:21.919Z,40.40
2022-07-25T12:25:49.393Z,40.70
2022-07-25T12:28:16.493Z,41.10
2022-07-25T12:30:45.256Z,40.50
2022-07-25T12:33:12.673Z,41.10
2022-07-25T12:35:44.157Z,40.90
2022-07-25T12:38:11.846Z,41.20
2022-07-25T12:40:39.217Z,41.00
2022-07-25T12:43:06.331Z,41.10
2022-07-25T12:45:34.022Z,40.70
2022-07-25T12:48:01.171Z,41.00
2022-07-25T12:50:28.298Z,41.50
2022-07-25T12:52:55.437Z,41.20
2022-07-25T12:55:22.419Z,40.90
2022-07-25T12:57:50.044Z,41.20
2022-07-25T13:00:19.831Z,40.30
2022-07-25T13:02:47.363Z,40.50
2022-07-25T13:05:14.790Z,40.40
2022-07-25T13:07:41.973Z,40.70
2022-07-25T13:10:09.768Z,40.30
2022-07-25T13:12:36.832Z,41.10
2022-07-25T13:15:04.565Z,40.00
2022-07-25T13:17:32.204Z,40.70
2022-07-25T13:19:59.355Z,40.70
2022-07-25T13:22:26.933Z,40.60
2022-07-25T13:24:54.551Z,40.50
2022-07-25T13:27:23.090Z,40.20
2022-07-25T13:29:50.875Z,40.50
2022-07-25T13:32:18.542Z,40.50
2022-07-25T13:34:45.581Z,40.50
2022-07-25T13:37:12.617Z,40.10
2022-07-25T13:39:39.637Z,40.60
2022-07-25T13:42:06.831Z,39.90
2022-07-25T13:44:33.877Z,39.90
2022-07-25T13:47:01.901Z,40.10
2022-07-25T13:49:28.959Z,39.90
2022-07-25T13:51:55.977Z,39.10
2022-07-25T13:54:22.988Z,40.20
2022-07-25T13:56:50.113Z,40.70
2022-07-25T13:59:21.174Z,39.50
2022-07-25T14:01:49.117Z,39.90
2022-07-25T14:04:16.258Z,39.70
2022-07-25T14:06:43.636Z,39.10
2022-07-25T14:09:10.927Z,39.70
2022-07-25T14:11:38.204Z,39.80
2022-07-25T14:14:05.501Z,40.20
2022-07-25T14:16:33.383Z,39.50
2022-07-25T14:19:01.797Z,39.20
2022-07-25T14:21:29.138Z,39.50
2022-07-25T14:23:56.096Z,39.00
2022-07-25T14:26:23.054Z,39.10
2022-07-25T14:28:50.054Z,38.60
2022-07-25T14:31:17.116Z,38.80
2022-07-25T14:33:44.128Z,39.50
2022-07-25T14:36:11.195Z,38.70
2022-07-25T14:38:38.385Z,39.20
2022-07-25T14:41:12.103Z,38.90
2022-07-25T14:43:40.589Z,39.60
2022-07-25T14:46:07.761Z,38.10
2022-07-25T14:48:36.160Z,38.20
2022-07-25T14:51:03.455Z,38.40
2022-07-25T14:53:30.394Z,39.10
2022-07-25T14:55:57.285Z,39.30
2022-07-25T14:58:24.209Z,38.50
2022-07-25T15:00:51.189Z,39.10
2022-07-25T15:03:18.154Z,39.80
2022-07-25T15:05:46.477Z,39.50
2022-07-25T15:08:13.768Z,38.70
2022-07-25T15:10:41.056Z,38.80
2022-07-25T15:13:30.056Z,39.20
2022-07-25T15:15:55.222Z,39.50
2022-07-25T15:18:22.317Z,39.10
2022-07-25T15:20:49.431Z,39.40
2022-07-25T15:23:16.358Z,39.40
2022-07-25T15:26:04.081Z,39.20
2022-07-25T15:28:32.498Z,39.10
2022-07-25T15:30:59.640Z,38.70
2022-07-25T15:33:26.614Z,38.60
2022-07-25T15:35:54.086Z,38.40
2022-07-25T15:38:21.330Z,38.80
2022-07-25T15:40:48.369Z,39.40
2022-07-25T15:43:15.331Z,39.10
2022-07-25T15:45:44.751Z,39.00
2022-07-25T15:48:14.077Z,39.00
2022-07-25T15:50:43.563Z,38.60
2022-07-25T15:53:11.952Z,38.70
2022-07-25T15:55:40.393Z,38.50
2022-07-25T15:58:08.245Z,38.60
2022-07-25T16:00:35.380Z,38.70
2022-07-25T16:03:02.496Z,39.20
2022-07-25T16:05:29.596Z,39.00
2022-07-25T16:07:57.166Z,38.80
2022-07-25T16:10:24.204Z,39.00
2022-07-25T16:12:51.350Z,38.40
2022-07-25T16:15:18.310Z,39.30
2022-07-25T16:17:45.504Z,38.50
2022-07-25T16:20:13.242Z,38.70
2022-07-25T16:22:40.635Z,38.60
2022-07-25T16:25:08.519Z,38.80
2022-07-25T16:27:35.576Z,39.50
2022-07-25T16:30:02.503Z,38.80
2022-07-25T16:32:29.729Z,39.10
2022-07-25T16:34:56.677Z,39.10
2022-07-25T16:37:23.674Z,39.00
2022-07-25T16:39:50.604Z,39.00
2022-07-25T16:42:17.601Z,39.30
2022-07-25T16:44:45.016Z,39.50
2022-07-25T16:47:12.024Z,38.90
2022-07-25T16:49:38.903Z,39.10
2022-07-25T16:52:06.139Z,39.80
2022-07-25T16:54:33.617Z,39.70
2022-07-25T16:57:01.376Z,40.50
2022-07-25T16:59:28.847Z,40.30
2022-07-25T17:01:55.856Z,40.60
2022-07-25T17:04:23.516Z,40.60
2022-07-25T17:06:50.525Z,40.80
2022-07-25T17:09:17.573Z,40.60
2022-07-25T17:11:45.368Z,41.00
2022-07-25T17:14:12.482Z,41.30
2022-07-25T17:16:40.664Z,41.40
2022-07-25T17:19:07.966Z,41.90
2022-07-25T17:21:35.302Z,42.50
2022-07-25T17:24:02.232Z,43.50
2022-07-25T17:26:29.582Z,43.60
2022-07-25T17:28:56.496Z,44.80
2022-07-25T17:31:23.599Z,45.00
2022-07-25T17:33:50.879Z,55.70
2022-07-25T17:36:18.975Z,45.90
2022-07-25T17:38:46.261Z,46.70
2022-07-25T17:41:13.396Z,47.20
2022-07-25T17:43:40.539Z,47.50
2022-07-25T17:46:07.604Z,47.70
2022-07-25T17:48:35.229Z,48.10
2022-07-25T17:53:29.785Z,48.40
2022-07-25T17:55:56.943Z,48.60
2022-07-25T17:58:23.944Z,49.50
2022-07-25T18:00:50.898Z,49.20
2022-07-25T18:03:18.087Z,49.60
2022-07-25T18:05:45.157Z,50.00
2022-07-25T18:08:12.105Z,49.50
2022-07-25T18:10:39.301Z,49.60
2022-07-25T18:13:06.237Z,50.00
2022-07-25T18:15:33.447Z,50.10
2022-07-25T18:18:00.419Z,50.20
2022-07-25T18:20:27.471Z,50.30
2022-07-25T18:22:54.726Z,51.00
2022-07-25T18:25:21.891Z,51.00
2022-07-25T18:27:48.850Z,51.50
2022-07-25T18:30:16.235Z,52.20
2022-07-25T18:32:43.193Z,51.30
2022-07-25T18:35:10.308Z,57.10
2022-07-25T18:37:37.609Z,51.50
2022-07-25T18:40:06.817Z,51.60
2022-07-25T18:42:34.402Z,52.10
2022-07-25T18:45:01.663Z,52.40
2022-07-25T18:47:32.123Z,52.40
2022-07-25T18:49:59.567Z,52.50
2022-07-25T18:52:27.137Z,52.80
2022-07-25T18:54:54.184Z,53.00
2022-07-25T18:57:21.235Z,53.00
2022-07-25T18:59:48.272Z,53.00
2022-07-25T19:02:15.641Z,53.50
2022-07-25T19:04:42.591Z,53.20
2022-07-25T19:07:09.665Z,53.20
2022-07-25T19:09:36.588Z,53.50
2022-07-25T19:12:03.623Z,53.70
2022-07-25T19:14:30.703Z,53.60
2022-07-25T19:16:58.899Z,53.50
2022-07-25T19:19:26.359Z,53.50
2022-07-25T19:21:53.461Z,53.80
2022-07-25T19:24:20.563Z,53.70
2022-07-25T19:26:48.220Z,53.80
2022-07-25T19:29:16.567Z,53.90
2022-07-25T19:31:44.154Z,54.20
2022-07-25T19:34:11.641Z,54.50
2022-07-25T19:36:39.277Z,54.50
2022-07-25T19:39:06.566Z,54.80
2022-07-25T19:41:34.120Z,55.20
2022-07-25T19:44:01.123Z,54.80
2022-07-25T19:46:28.129Z,55.10
2022-07-25T19:48:55.480Z,54.70
2022-07-25T19:51:22.467Z,55.10
2022-07-25T19:53:49.909Z,55.00
2022-07-25T19:56:17.006Z,55.90
2022-07-25T19:58:44.083Z,55.70
2022-07-25T20:01:12.883Z,55.90
2022-07-25T20:03:41.184Z,55.70
2022-07-25T20:06:08.870Z,56.30
2022-07-25T20:08:37.486Z,56.20
2022-07-25T20:11:04.593Z,56.20
2022-07-25T20:13:31.579Z,55.90
2022-07-25T20:15:58.976Z,55.90
2022-07-25T20:18:25.997Z,56.10
2022-07-25T20:20:53.396Z,55.80
2022-07-25T20:23:20.446Z,56.10
2022-07-25T20:25:47.826Z,56.60
2022-07-25T20:28:14.896Z,56.10
2022-07-25T20:30:42.032Z,55.80
2022-07-25T20:33:09.851Z,55.70
2022-07-25T20:35:38.025Z,55.80
2022-07-25T20:38:09.349Z,56.10
2022-07-25T20:40:46.382Z,56.20
2022-07-25T20:43:15.335Z,55.60
2022-07-25T20:45:42.360Z,55.60
2022-07-25T20:48:09.693Z,55.70
2022-07-25T20:50:37.983Z,55.70
2022-07-25T20:53:06.473Z,55.40
2022-07-25T20:55:34.003Z,56.60
2022-07-25T20:58:02.039Z,55.80
2022-07-25T21:00:29.241Z,55.80
2022-07-25T21:02:56.748Z,56.10
2022-07-25T21:05:24.524Z,56.90
2022-07-25T21:07:51.541Z,56.70
2022-07-25T21:10:20.307Z,56.90
2022-07-25T21:12:47.478Z,57.70
2022-07-25T21:15:15.006Z,58.40
2022-07-25T21:17:42.140Z,57.90
2022-07-25T21:20:11.268Z,58.60
2022-07-25T21:22:38.453Z,58.50
2022-07-25T21:25:06.175Z,58.60
2022-07-25T21:27:33.361Z,58.50
2022-07-25T21:30:00.276Z,58.80
2022-07-25T21:32:27.545Z,58.90
2022-07-25T21:34:54.677Z,59.00
2022-07-25T21:37:21.791Z,59.10
2022-07-25T21:39:49.000Z,59.20
2022-07-25T21:42:16.298Z,59.30
2022-07-25T21:44:44.683Z,59.60
2022-07-25T21:47:12.337Z,59.30
2022-07-25T21:49:41.907Z,59.00
2022-07-25T21:52:13.718Z,59.30
2022-07-25T21:54:42.154Z,59.10
2022-07-25T21:57:13.485Z,59.60
2022-07-25T21:59:45.314Z,59.20
2022-07-25T22:02:13.046Z,59.40
2022-07-25T22:04:40.318Z,59.60
2022-07-25T22:07:07.373Z,59.00
2022-07-25T22:09:34.313Z,59.70
2022-07-25T22:12:01.394Z,59.20
2022-07-25T22:14:28.362Z,59.30
2022-07-25T22:16:55.519Z,59.30
2022-07-25T22:19:22.848Z,58.90
2022-07-25T22:21:50.689Z,58.80
2022-07-25T22:24:17.871Z,59.30
2022-07-25T22:26:44.908Z,59.30
2022-07-25T22:29:12.403Z,59.60
2022-07-25T22:31:40.102Z,59.40
2022-07-25T22:34:07.548Z,59.40
2022-07-25T22:36:34.952Z,59.60
2022-07-25T22:39:01.918Z,59.60
2022-07-25T22:41:28.925Z,59.50
2022-07-25T22:43:58.117Z,59.10
2022-07-25T22:46:30.649Z,59.40
2022-07-25T22:48:59.039Z,59.10
2022-07-25T22:51:26.807Z,59.60
2022-07-25T22:53:54.064Z,59.30
2022-07-25T22:56:21.706Z,59.20
2022-07-25T22:58:49.461Z,59.40
2022-07-25T23:01:17.604Z,59.50
2022-07-25T23:03:45.335Z,59.50
2022-07-25T23:06:13.078Z,60.00
2022-07-25T23:08:40.369Z,59.60
2022-07-25T23:11:07.500Z,58.80
2022-07-25T23:13:35.612Z,59.30
2022-07-25T23:16:03.764Z,59.40
2022-07-25T23:18:31.866Z,59.40
2022-07-25T23:20:59.516Z,59.40
2022-07-25T23:23:26.581Z,60.10
2022-07-25T23:25:53.510Z,60.20
2022-07-25T23:28:20.485Z,59.70
2022-07-25T23:30:47.396Z,59.70
2022-07-25T23:33:14.375Z,59.80
2022-07-25T23:35:41.414Z,59.60
2022-07-25T23:38:08.480Z,60.00
2022-07-25T23:40:35.819Z,60.00
2022-07-25T23:43:02.763Z,60.10
2022-07-25T23:45:30.488Z,60.00
2022-07-25T23:47:57.531Z,59.60
2022-07-25T23:50:24.907Z,59.70
2022-07-25T23:52:52.237Z,59.70
2022-07-25T23:55:19.894Z,59.50
2022-07-25T23:57:46.943Z,59.80
